createdAt,value
2017-07-04T00:01:52.227Z,13.97
2017-07-04T00:04:18.841Z,13.77
2017-07-04T00:06:45.482Z,18.10
2017-07-04T00:09:12.152Z,18.77
2017-07-04T00:11:38.796Z,22.50
2017-07-04T00:14:05.428Z,20.33
2017-07-04T00:16:32.046Z,20.97
2017-07-04T00:18:58.667Z,16.70
2017-07-04T00:21:25.300Z,23.77
2017-07-04T00:23:51.936Z,21.17
2017-07-04T00:26:18.585Z,18.10
2017-07-04T00:28:45.222Z,24.93
2017-07-04T00:31:11.876Z,23.37
2017-07-04T00:33:38.486Z,27.63
2017-07-04T00:36:05.894Z,20.90
2017-07-04T00:38:32.534Z,20.40
2017-07-04T00:40:59.179Z,22.80
2017-07-04T00:43:25.805Z,15.03
2017-07-04T00:45:52.450Z,29.53
2017-07-04T00:48:19.097Z,14.93
2017-07-04T00:50:45.719Z,12.30
2017-07-04T00:53:13.189Z,12.33
2017-07-04T00:55:41.541Z,13.10
2017-07-04T00:58:10.733Z,10.07
2017-07-04T01:00:38.027Z,16.43
2017-07-04T01:03:08.296Z,11.57
2017-07-04T01:05:38.791Z,11.23
2017-07-04T01:08:07.128Z,18.53
2017-07-04T01:10:37.024Z,12.03
2017-07-04T01:13:06.459Z,8.53
2017-07-04T01:15:38.734Z,12.80
2017-07-04T01:18:06.274Z,12.13
2017-07-04T01:20:35.150Z,9.60
2017-07-04T01:23:01.789Z,9.97
2017-07-04T01:25:28.415Z,18.00
2017-07-04T01:27:56.832Z,17.43
2017-07-04T01:30:24.243Z,15.20
2017-07-04T01:32:51.656Z,19.07
2017-07-04T01:35:19.928Z,15.57
2017-07-04T01:37:47.079Z,15.30
2017-07-04T01:40:14.205Z,11.63
2017-07-04T01:42:41.505Z,13.63
2017-07-04T01:45:11.098Z,15.77
2017-07-04T01:47:38.596Z,18.60
2017-07-04T01:50:06.927Z,14.33
2017-07-04T01:52:35.263Z,12.23
2017-07-04T01:55:04.551Z,12.40
2017-07-04T01:57:32.462Z,17.93
2017-07-04T02:00:00.282Z,12.00
2017-07-04T02:02:27.967Z,11.67
2017-07-04T02:04:54.628Z,9.60
2017-07-04T02:07:21.247Z,13.83
2017-07-04T02:09:47.881Z,18.17
2017-07-04T02:12:14.515Z,12.13
2017-07-04T02:14:41.159Z,12.40
2017-07-04T02:17:07.791Z,13.53
2017-07-04T02:19:34.420Z,11.27
2017-07-04T02:22:01.056Z,8.93
2017-07-04T02:24:27.722Z,12.17
2017-07-04T02:26:54.344Z,10.90
2017-07-04T02:29:21.007Z,7.90
2017-07-04T02:31:47.678Z,11.10
2017-07-04T02:34:14.303Z,8.37
2017-07-04T02:36:40.962Z,8.93
2017-07-04T02:39:07.580Z,13.23
2017-07-04T02:41:38.741Z,9.50
2017-07-04T02:44:06.080Z,10.87
2017-07-04T02:46:32.691Z,12.03
2017-07-04T02:48:59.364Z,13.53
2017-07-04T02:51:28.507Z,11.20
2017-07-04T02:53:57.561Z,9.40
2017-07-04T02:56:25.702Z,10.70
2017-07-04T02:58:54.197Z,7.90
2017-07-04T03:01:21.597Z,10.73
2017-07-04T03:03:51.012Z,15.40
2017-07-04T03:06:19.240Z,12.23
2017-07-04T03:08:45.863Z,10.53
2017-07-04T03:11:12.537Z,10.70
2017-07-04T03:13:39.191Z,14.20
2017-07-04T03:16:05.816Z,23.93
2017-07-04T03:18:32.468Z,17.27
2017-07-04T03:21:01.795Z,12.83
2017-07-04T03:23:33.343Z,11.10
2017-07-04T03:25:59.979Z,11.57
2017-07-04T03:28:27.780Z,12.17
2017-07-04T03:30:54.455Z,15.13
2017-07-04T03:33:21.070Z,13.73
2017-07-04T03:35:47.721Z,14.03
2017-07-04T03:38:14.345Z,13.83
2017-07-04T03:40:40.962Z,23.90
2017-07-04T03:43:07.603Z,13.33
2017-07-04T03:45:34.234Z,12.30
2017-07-04T03:48:00.879Z,19.70
2017-07-04T03:50:27.500Z,18.63
2017-07-04T03:52:56.676Z,17.70
2017-07-04T03:55:26.389Z,16.83
2017-07-04T03:57:54.363Z,16.53
2017-07-04T04:00:21.011Z,13.07
2017-07-04T04:02:47.688Z,26.70
2017-07-04T04:05:14.685Z,17.07
2017-07-04T04:07:41.325Z,10.73
2017-07-04T04:10:07.958Z,14.17
2017-07-04T04:12:34.591Z,12.77
2017-07-04T04:15:01.228Z,12.60
2017-07-04T04:17:27.848Z,17.20
2017-07-04T04:19:54.512Z,13.07
2017-07-04T04:22:21.170Z,17.97
2017-07-04T04:24:47.781Z,16.57
2017-07-04T04:27:14.411Z,14.13
2017-07-04T04:29:41.050Z,16.33
2017-07-04T04:32:08.676Z,9.80
2017-07-04T04:34:38.949Z,11.10
2017-07-04T04:37:06.499Z,11.20
2017-07-04T04:39:33.906Z,13.27
2017-07-04T04:42:02.161Z,16.43
2017-07-04T04:44:28.802Z,12.03
2017-07-04T04:46:58.381Z,9.60
2017-07-04T04:49:25.147Z,12.43
2017-07-04T04:51:54.627Z,13.83
2017-07-04T04:54:21.420Z,10.17
2017-07-04T04:56:49.540Z,9.50
2017-07-04T04:59:18.966Z,11.47
2017-07-04T05:01:46.450Z,11.17
2017-07-04T05:04:13.117Z,16.00
2017-07-04T05:06:40.012Z,9.80
2017-07-04T05:09:06.622Z,18.77
2017-07-04T05:11:34.652Z,8.50
2017-07-04T05:14:01.293Z,11.47
2017-07-04T05:16:33.760Z,11.33
2017-07-04T05:19:01.614Z,7.00
2017-07-04T05:21:29.899Z,7.10
2017-07-04T05:23:57.194Z,9.10
2017-07-04T05:26:25.041Z,10.73
2017-07-04T05:28:53.078Z,9.90
2017-07-04T05:31:19.798Z,14.67
2017-07-04T05:33:46.972Z,10.97
2017-07-04T05:36:14.159Z,11.10
2017-07-04T05:38:41.432Z,12.53
2017-07-04T05:41:10.059Z,10.00
2017-07-04T05:43:37.557Z,15.50
2017-07-04T05:46:04.861Z,11.10
2017-07-04T05:48:33.114Z,10.60
2017-07-04T05:50:59.767Z,11.37
2017-07-04T05:53:26.436Z,10.93
2017-07-04T05:55:53.559Z,15.23
2017-07-04T05:58:20.203Z,11.20
2017-07-04T06:00:46.849Z,17.10
2017-07-04T06:03:13.478Z,22.67
2017-07-04T06:05:43.437Z,20.33
2017-07-04T06:08:13.107Z,14.20
2017-07-04T06:10:42.392Z,11.60
2017-07-04T06:13:12.751Z,15.90
2017-07-04T06:15:41.524Z,21.73
2017-07-04T06:18:10.758Z,23.97
2017-07-04T06:20:41.589Z,19.97
2017-07-04T06:23:09.559Z,27.60
2017-07-04T06:25:39.140Z,24.47
2017-07-04T06:28:08.985Z,22.03
2017-07-04T06:30:41.529Z,21.80
2017-07-04T06:33:09.282Z,23.73
2017-07-04T06:35:39.007Z,23.30
2017-07-04T06:38:07.805Z,31.90
2017-07-04T06:40:35.984Z,29.47
2017-07-04T06:43:05.818Z,37.63
2017-07-04T06:45:35.050Z,29.83
2017-07-04T06:48:06.479Z,35.23
2017-07-04T06:50:38.913Z,35.10
2017-07-04T06:53:06.156Z,31.40
2017-07-04T06:55:36.188Z,34.97
2017-07-04T06:58:03.975Z,35.17
2017-07-04T07:00:33.241Z,34.43
2017-07-04T07:03:03.686Z,36.60
2017-07-04T07:05:32.279Z,37.00
2017-07-04T07:08:00.410Z,35.47
2017-07-04T07:10:29.521Z,34.57
2017-07-04T07:12:59.012Z,40.00
2017-07-04T07:15:28.481Z,42.83
2017-07-04T07:17:57.997Z,35.63
2017-07-04T07:20:27.901Z,36.93
2017-07-04T07:22:56.713Z,32.30
2017-07-04T07:25:25.923Z,32.77
2017-07-04T07:27:53.266Z,35.07
2017-07-04T07:30:21.283Z,36.13
2017-07-04T07:32:52.183Z,35.80
2017-07-04T07:35:21.263Z,37.97
2017-07-04T07:37:50.019Z,35.60
2017-07-04T07:40:19.751Z,31.60
2017-07-04T07:42:48.117Z,32.33
2017-07-04T07:45:16.303Z,32.63
2017-07-04T07:47:45.399Z,32.60
2017-07-04T07:50:14.765Z,39.37
2017-07-04T07:52:44.009Z,31.93
2017-07-04T07:55:11.144Z,25.27
2017-07-04T07:57:40.091Z,22.30
2017-07-04T08:00:08.883Z,34.03
2017-07-04T08:02:38.350Z,31.63
2017-07-04T08:05:08.498Z,24.23
2017-07-04T08:07:37.835Z,27.20
2017-07-04T08:10:07.378Z,20.70
2017-07-04T08:12:37.262Z,22.30
2017-07-04T08:15:06.145Z,24.57
2017-07-04T08:17:34.725Z,24.80
2017-07-04T08:20:02.706Z,20.43
2017-07-04T08:22:31.760Z,27.63
2017-07-04T08:25:00.068Z,30.30
2017-07-04T08:27:27.208Z,29.33
2017-07-04T08:29:56.330Z,33.70
2017-07-04T08:32:25.994Z,34.00
2017-07-04T08:34:55.404Z,38.10
2017-07-04T08:37:23.447Z,33.27
2017-07-04T08:39:50.631Z,35.53
2017-07-04T08:42:20.679Z,29.87
2017-07-04T08:44:52.472Z,36.93
2017-07-04T08:47:23.016Z,39.33
2017-07-04T08:49:51.915Z,38.37
2017-07-04T08:52:20.224Z,35.73
2017-07-04T08:54:49.107Z,33.93
2017-07-04T08:57:17.240Z,30.47
2017-07-04T08:59:46.024Z,27.33
2017-07-04T09:02:14.471Z,28.87
2017-07-04T09:04:44.629Z,25.77
2017-07-04T09:07:14.120Z,24.50
2017-07-04T09:09:43.287Z,27.27
2017-07-04T09:12:11.105Z,46.83
2017-07-04T09:14:40.302Z,29.47
2017-07-04T09:17:09.505Z,31.57
2017-07-04T09:19:38.074Z,29.60
2017-07-04T09:22:07.234Z,31.20
2017-07-04T09:24:37.241Z,33.10
2017-07-04T09:27:06.023Z,28.07
2017-07-04T09:29:33.527Z,32.73
2017-07-04T09:32:02.419Z,23.83
2017-07-04T09:34:31.247Z,24.83
2017-07-04T09:36:59.867Z,28.40
2017-07-04T09:39:28.471Z,26.30
2017-07-04T09:41:58.150Z,29.13
2017-07-04T09:44:26.384Z,26.37
2017-07-04T09:46:54.667Z,24.23
2017-07-04T09:49:26.293Z,24.00
2017-07-04T09:51:55.236Z,30.47
2017-07-04T09:54:24.051Z,28.17
2017-07-04T09:56:53.846Z,22.50
2017-07-04T09:59:24.836Z,20.80
2017-07-04T10:01:54.615Z,14.87
2017-07-04T10:04:24.009Z,17.20
2017-07-04T10:06:51.883Z,20.40
2017-07-04T10:09:22.305Z,18.30
2017-07-04T10:11:52.782Z,21.97
2017-07-04T10:14:21.956Z,22.77
2017-07-04T10:16:51.227Z,19.60
2017-07-04T10:19:19.091Z,16.70
2017-07-04T10:21:48.247Z,15.93
2017-07-04T10:24:19.223Z,13.33
2017-07-04T10:26:47.955Z,13.43
2017-07-04T10:29:15.578Z,16.07
2017-07-04T10:31:42.201Z,13.50
2017-07-04T10:34:12.260Z,14.70
2017-07-04T10:36:41.433Z,13.07
2017-07-04T10:39:10.725Z,13.90
2017-07-04T10:41:39.589Z,14.47
2017-07-04T10:44:07.680Z,15.03
2017-07-04T10:46:36.416Z,12.90
2017-07-04T10:49:06.429Z,11.03
2017-07-04T10:51:35.204Z,19.43
2017-07-04T10:54:03.198Z,13.30
2017-07-04T10:56:32.017Z,15.20
2017-07-04T10:59:02.521Z,15.00
2017-07-04T11:01:30.490Z,12.63
2017-07-04T11:03:58.954Z,13.87
2017-07-04T11:06:27.950Z,22.50
2017-07-04T11:08:57.783Z,16.90
2017-07-04T11:11:27.129Z,14.00
2017-07-04T11:13:56.519Z,17.63
2017-07-04T11:16:24.153Z,11.30
2017-07-04T11:18:52.959Z,12.33
2017-07-04T11:21:19.680Z,28.00
2017-07-04T11:23:46.984Z,14.90
2017-07-04T11:26:16.404Z,13.60
2017-07-04T11:28:44.847Z,15.23
2017-07-04T11:31:12.385Z,14.67
2017-07-04T11:33:39.030Z,12.33
2017-07-04T11:36:05.668Z,15.53
2017-07-04T11:38:32.597Z,11.13
2017-07-04T11:40:59.271Z,16.13
2017-07-04T11:43:26.267Z,9.17
2017-07-04T11:45:57.204Z,11.33
2017-07-04T11:48:25.379Z,16.57
2017-07-04T11:50:53.246Z,22.20
2017-07-04T11:53:23.278Z,12.17
2017-07-04T11:55:50.507Z,13.43
2017-07-04T11:58:18.937Z,9.73
2017-07-04T12:00:45.608Z,11.20
2017-07-04T12:03:12.276Z,16.87
2017-07-04T12:05:38.900Z,11.10
2017-07-04T12:08:05.530Z,9.50
2017-07-04T12:10:32.238Z,9.47
2017-07-04T12:13:00.954Z,10.00
2017-07-04T12:15:27.933Z,10.40
2017-07-04T12:17:56.044Z,11.37
2017-07-04T12:20:25.293Z,19.43
2017-07-04T12:22:51.950Z,12.40
2017-07-04T12:25:18.603Z,10.33
2017-07-04T12:27:46.213Z,9.93
2017-07-04T12:30:12.860Z,8.80
2017-07-04T12:32:39.514Z,10.43
2017-07-04T12:35:06.448Z,9.20
2017-07-04T12:37:33.076Z,9.53
2017-07-04T12:40:00.710Z,12.10
2017-07-04T12:42:29.216Z,11.00
2017-07-04T12:44:57.938Z,11.90
2017-07-04T12:47:27.680Z,10.80
2017-07-04T12:49:56.120Z,9.90
2017-07-04T12:52:25.057Z,13.17
2017-07-04T12:54:53.440Z,11.27
2017-07-04T12:57:21.408Z,11.90
2017-07-04T12:59:49.485Z,10.57
2017-07-04T13:02:19.657Z,9.20
2017-07-04T13:04:48.909Z,10.90
2017-07-04T13:07:16.934Z,8.30
2017-07-04T13:09:49.070Z,6.20
2017-07-04T13:12:19.423Z,9.87
2017-07-04T13:14:48.192Z,4.90
2017-07-04T13:17:18.808Z,6.53
2017-07-04T13:19:46.678Z,9.53
2017-07-04T13:22:15.542Z,6.80
2017-07-04T13:24:44.315Z,10.93
2017-07-04T13:27:13.494Z,13.47
2017-07-04T13:29:42.970Z,8.90
2017-07-04T13:32:12.419Z,6.00
2017-07-04T13:34:40.221Z,8.17
2017-07-04T13:37:10.588Z,6.57
2017-07-04T13:39:38.778Z,7.20
2017-07-04T13:42:05.700Z,9.40
2017-07-04T13:44:35.065Z,4.43
2017-07-04T13:47:04.439Z,7.00
2017-07-04T13:49:33.805Z,9.07
2017-07-04T13:52:01.866Z,5.87
2017-07-04T13:54:31.229Z,4.93
2017-07-04T13:57:00.676Z,6.80
2017-07-04T13:59:29.946Z,9.17
2017-07-04T14:01:59.499Z,8.90
2017-07-04T14:04:28.403Z,11.73
2017-07-04T14:06:57.039Z,14.60
2017-07-04T14:09:26.955Z,13.20
2017-07-04T14:11:56.687Z,14.07
2017-07-04T14:14:25.624Z,13.73
2017-07-04T14:16:53.350Z,12.17
2017-07-04T14:19:21.156Z,16.87
2017-07-04T14:21:50.282Z,15.37
2017-07-04T14:24:19.515Z,14.90
2017-07-04T14:26:49.922Z,18.67
2017-07-04T14:29:19.830Z,16.03
2017-07-04T14:31:47.948Z,11.37
2017-07-04T14:34:17.412Z,14.00
2017-07-04T14:36:47.627Z,14.47
2017-07-04T14:39:19.344Z,20.47
2017-07-04T14:41:48.335Z,17.33
2017-07-04T14:44:16.837Z,15.90
2017-07-04T14:46:45.724Z,15.23
2017-07-04T14:49:16.018Z,18.17
2017-07-04T14:51:44.732Z,18.10
2017-07-04T14:54:12.696Z,15.00
2017-07-04T14:56:40.317Z,17.30
2017-07-04T14:59:10.749Z,20.77
2017-07-04T15:01:39.641Z,15.37
2017-07-04T15:04:09.738Z,15.50
2017-07-04T15:06:38.348Z,16.40
2017-07-04T15:09:07.720Z,21.17
2017-07-04T15:11:37.380Z,21.10
2017-07-04T15:14:08.120Z,20.30
2017-07-04T15:16:36.941Z,22.03
2017-07-04T15:19:05.585Z,22.20
2017-07-04T15:21:33.347Z,23.50
2017-07-04T15:24:02.645Z,22.57
2017-07-04T15:26:32.103Z,19.20
2017-07-04T15:28:59.706Z,23.40
2017-07-04T15:31:33.309Z,21.33
2017-07-04T15:34:03.457Z,21.80
2017-07-04T15:36:32.516Z,20.47
2017-07-04T15:39:02.879Z,21.03
2017-07-04T15:41:32.429Z,20.53
2017-07-04T15:44:01.438Z,16.50
2017-07-04T15:46:30.148Z,20.00
2017-07-04T15:48:59.647Z,21.80
2017-07-04T15:51:28.575Z,20.33
2017-07-04T15:53:59.612Z,20.70
2017-07-04T15:56:28.371Z,19.23
2017-07-04T15:58:56.820Z,23.27
2017-07-04T16:01:26.118Z,17.53
2017-07-04T16:03:56.420Z,19.50
2017-07-04T16:06:24.706Z,15.97
2017-07-04T16:08:53.610Z,16.97
2017-07-04T16:11:23.927Z,27.30
2017-07-04T16:13:51.384Z,18.50
2017-07-04T16:16:21.691Z,18.67
2017-07-04T16:18:51.002Z,20.20
2017-07-04T16:21:20.654Z,20.60
2017-07-04T16:23:54.877Z,15.10
2017-07-04T16:26:25.350Z,22.13
2017-07-04T16:28:54.807Z,20.27
2017-07-04T16:31:24.317Z,12.90
2017-07-04T16:33:52.591Z,16.87
2017-07-04T16:36:20.382Z,14.40
2017-07-04T16:38:49.387Z,16.97
2017-07-04T16:41:18.456Z,18.30
2017-07-04T16:43:46.155Z,16.50
2017-07-04T16:46:18.794Z,18.00
2017-07-04T16:48:47.094Z,21.67
2017-07-04T16:51:15.884Z,16.40
2017-07-04T16:53:44.799Z,16.90
2017-07-04T16:56:12.563Z,18.60
2017-07-04T16:58:44.149Z,16.57
2017-07-04T17:01:13.772Z,18.67
2017-07-04T17:03:42.679Z,12.53
2017-07-04T17:06:11.568Z,13.53
2017-07-04T17:08:40.701Z,15.10
2017-07-04T17:11:09.442Z,14.93
2017-07-04T17:13:40.967Z,17.23
2017-07-04T17:16:09.398Z,13.33
2017-07-04T17:18:38.641Z,15.67
2017-07-04T17:21:07.893Z,13.20
2017-07-04T17:23:39.921Z,11.70
2017-07-04T17:26:07.831Z,9.20
2017-07-04T17:28:38.084Z,11.70
2017-07-04T17:31:07.114Z,12.47
2017-07-04T17:33:35.270Z,10.90
2017-07-04T17:36:03.763Z,12.63
2017-07-04T17:38:33.139Z,20.87
2017-07-04T17:41:01.872Z,13.33
2017-07-04T17:43:31.572Z,15.47
2017-07-04T17:46:01.735Z,18.90
2017-07-04T17:48:31.873Z,14.63
2017-07-04T17:51:01.330Z,14.00
2017-07-04T17:53:29.776Z,16.03
2017-07-04T17:55:58.262Z,10.27
2017-07-04T17:58:27.765Z,13.67
2017-07-04T18:00:58.548Z,10.37
2017-07-04T18:03:27.209Z,12.80
2017-07-04T18:05:56.243Z,13.27
2017-07-04T18:08:25.445Z,10.00
2017-07-04T18:10:53.757Z,10.57
2017-07-04T18:13:22.424Z,10.47
2017-07-04T18:15:51.283Z,9.93
2017-07-04T18:18:20.606Z,11.63
2017-07-04T18:20:51.451Z,12.93
2017-07-04T18:23:21.161Z,9.10
2017-07-04T18:25:50.144Z,17.43
2017-07-04T18:28:18.221Z,11.07
2017-07-04T18:30:46.886Z,12.60
2017-07-04T18:33:15.838Z,11.40
2017-07-04T18:35:45.450Z,10.30
2017-07-04T18:38:15.127Z,11.33
2017-07-04T18:40:45.908Z,11.60
2017-07-04T18:43:13.231Z,11.10
2017-07-04T18:45:42.874Z,9.03
2017-07-04T18:48:14.614Z,9.53
2017-07-04T18:50:42.683Z,13.97
2017-07-04T18:53:14.419Z,14.47
2017-07-04T18:55:42.350Z,14.23
2017-07-04T18:58:12.150Z,9.90
2017-07-04T19:00:40.153Z,13.73
2017-07-04T19:03:09.650Z,11.00
2017-07-04T19:05:38.308Z,10.07
2017-07-04T19:08:06.684Z,11.93
2017-07-04T19:10:35.762Z,11.57
2017-07-04T19:13:04.484Z,12.97
2017-07-04T19:15:34.451Z,18.03
2017-07-04T19:18:02.860Z,12.00
2017-07-04T19:20:30.160Z,9.70
2017-07-04T19:22:59.195Z,11.10
2017-07-04T19:25:29.951Z,9.60
2017-07-04T19:27:57.728Z,12.00
2017-07-04T19:30:26.805Z,15.23
2017-07-04T19:32:55.205Z,13.50
2017-07-04T19:35:24.257Z,14.30
2017-07-04T19:37:53.286Z,11.73
2017-07-04T19:40:23.278Z,10.23
2017-07-04T19:42:50.924Z,13.90
2017-07-04T19:45:20.644Z,12.27
2017-07-04T19:47:50.443Z,13.93
2017-07-04T19:50:18.132Z,16.73
2017-07-04T19:52:46.655Z,14.77
2017-07-04T19:55:15.810Z,14.00
2017-07-04T19:57:45.493Z,13.80
2017-07-04T20:00:14.916Z,19.23
2017-07-04T20:02:45.800Z,15.30
2017-07-04T20:05:14.817Z,15.57
2017-07-04T20:07:43.412Z,16.67
2017-07-04T20:10:14.745Z,14.37
2017-07-04T20:12:46.887Z,16.90
2017-07-04T20:15:17.923Z,13.50
2017-07-04T20:17:45.815Z,15.13
2017-07-04T20:20:12.436Z,15.43
2017-07-04T20:22:42.919Z,19.47
2017-07-04T20:25:11.953Z,22.40
2017-07-04T20:27:40.935Z,20.87
2017-07-04T20:30:13.963Z,16.50
2017-07-04T20:32:43.652Z,16.27
2017-07-04T20:35:12.921Z,15.10
2017-07-04T20:37:43.697Z,13.93
2017-07-04T20:40:15.690Z,18.60
2017-07-04T20:42:47.148Z,15.43
2017-07-04T20:45:16.902Z,18.63
2017-07-04T20:47:46.935Z,15.20
2017-07-04T20:50:14.737Z,17.07
2017-07-04T20:52:42.882Z,26.93
2017-07-04T20:55:09.554Z,15.47
2017-07-04T20:57:39.898Z,15.40
2017-07-04T21:00:08.599Z,14.90
2017-07-04T21:02:35.638Z,20.90
2017-07-04T21:05:02.285Z,17.27
2017-07-04T21:07:34.220Z,16.57
2017-07-04T21:10:02.425Z,21.50
2017-07-04T21:12:32.770Z,24.30
2017-07-04T21:15:01.846Z,22.80
2017-07-04T21:17:30.852Z,16.23
2017-07-04T21:19:59.918Z,14.47
2017-07-04T21:22:28.641Z,20.50
2017-07-04T21:24:59.385Z,20.87
2017-07-04T21:27:29.103Z,18.00
2017-07-04T21:29:57.934Z,24.87
2017-07-04T21:32:26.236Z,18.23
2017-07-04T21:34:54.725Z,20.80
2017-07-04T21:37:23.608Z,14.50
2017-07-04T21:39:52.729Z,17.37
2017-07-04T21:42:21.552Z,21.83
2017-07-04T21:44:49.875Z,15.87
2017-07-04T21:47:18.088Z,16.83
2017-07-04T21:49:47.910Z,21.70
2017-07-04T21:52:17.555Z,18.23
2017-07-04T21:54:46.906Z,21.97
2017-07-04T21:57:15.223Z,21.67
2017-07-04T21:59:43.983Z,24.13
2017-07-04T22:02:14.055Z,22.30
2017-07-04T22:04:43.599Z,20.40
2017-07-04T22:07:14.167Z,18.50
2017-07-04T22:09:43.083Z,20.30
2017-07-04T22:12:12.039Z,20.20
2017-07-04T22:14:40.838Z,24.53
2017-07-04T22:17:10.120Z,21.77
2017-07-04T22:19:38.948Z,23.90
2017-07-04T22:22:07.145Z,17.50
2017-07-04T22:24:39.388Z,18.40
2017-07-04T22:27:07.564Z,20.30
2017-07-04T22:29:35.419Z,21.83
2017-07-04T22:32:04.907Z,20.50
2017-07-04T22:34:36.445Z,22.63
2017-07-04T22:37:04.287Z,21.63
2017-07-04T22:39:33.798Z,23.57
2017-07-04T22:42:05.587Z,23.07
2017-07-04T22:44:34.463Z,18.47
2017-07-04T22:47:03.958Z,18.90
2017-07-04T22:49:33.120Z,21.27
2017-07-04T22:52:02.623Z,22.27
2017-07-04T22:54:32.149Z,25.37
2017-07-04T22:57:00.561Z,20.43
2017-07-04T22:59:29.471Z,24.67
2017-07-04T23:01:58.961Z,21.80
2017-07-04T23:04:31.629Z,25.80
2017-07-04T23:06:59.754Z,21.73
2017-07-04T23:09:29.907Z,22.97
2017-07-04T23:12:00.146Z,23.90
2017-07-04T23:14:28.923Z,24.63
2017-07-04T23:16:58.808Z,24.77
2017-07-04T23:19:27.161Z,26.37
2017-07-04T23:21:57.029Z,22.13
2017-07-04T23:24:25.475Z,22.27
2017-07-04T23:26:54.510Z,25.30
2017-07-04T23:29:23.432Z,26.57
2017-07-04T23:31:52.883Z,23.10
2017-07-04T23:34:21.316Z,23.03
2017-07-04T23:36:51.574Z,28.03
2017-07-04T23:39:20.193Z,25.40
2017-07-04T23:41:48.017Z,23.83
2017-07-04T23:44:16.606Z,23.80
2017-07-04T23:46:45.551Z,27.03
2017-07-04T23:49:16.566Z,24.10
2017-07-04T23:51:46.624Z,21.80
2017-07-04T23:54:15.085Z,22.80
2017-07-04T23:56:45.232Z,22.77
2017-07-04T23:59:14.070Z,22.17
